Time,TemperatureF,DewpointF,PressureIn,WindDirection,WindDirectionDegrees,WindSpeedMPH,WindSpeedGustMPH,Humidity,HourlyPrecipIn,Conditions,Clouds,dailyrainin,SoftwareType,DateUTC
2013-03-31 00:04:00,36.9,31.6,30.01,NW,304,0.0,0.0,81,0.00,,---,0.00,VWS V14.01,2013-03-31 07:04:00,
2013-03-31 00:09:00,36.7,31.4,30.01,NW,304,0.0,0.0,81,0.00,,---,0.00,VWS V14.01,2013-03-31 07:09:00,
2013-03-31 00:14:00,36.7,31.4,30.01,NW,304,0.0,0.0,81,0.00,,---,0.00,VWS V14.01,2013-03-31 07:14:00,
2013-03-31 00:19:00,36.3,31.1,30.01,NW,304,0.0,0.0,81,0.00,,---,0.00,VWS V14.01,2013-03-31 07:19:00,
2013-03-31 00:25:00,36.3,31.1,30.01,NW,304,0.0,0.0,81,0.00,,---,0.00,VWS V14.01,2013-03-31 07:25:00,
2013-03-31 00:30:00,36.1,30.9,30.01,NW,304,0.0,0.0,81,0.00,,---,0.00,VWS V14.01,2013-03-31 07:30:00,
2013-03-31 00:35:00,36.0,31.0,30.01,NW,304,0.0,0.0,82,0.00,,---,0.00,VWS V14.01,2013-03-31 07:35:00,
2013-03-31 00:40:00,35.8,30.8,30.01,NW,304,0.0,0.0,82,0.00,,---,0.00,VWS V14.01,2013-03-31 07:40:00,
2013-03-31 00:45:00,35.8,30.8,30.01,NW,304,0.0,0.0,82,0.00,,---,0.00,VWS V14.01,2013-03-31 07:45:00,
2013-03-31 00:50:00,35.8,31.1,30.01,NW,304,0.0,0.0,83,0.00,,---,0.00,VWS V14.01,2013-03-31 07:50:00,
2013-03-31 00:55:00,35.8,31.1,30.01,NW,304,0.0,0.0,83,0.00,,---,0.00,VWS V14.01,2013-03-31 07:55:00,
2013-03-31 01:00:00,35.6,31.0,30.01,NW,304,0.0,0.0,83,0.00,,---,0.00,VWS V14.01,2013-03-31 08:00:00,
2013-03-31 01:05:00,35.6,31.0,30.01,NW,304,0.0,0.0,83,0.00,,---,0.00,VWS V14.01,2013-03-31 08:05:00,
2013-03-31 01:10:00,35.4,31.1,30.01,NW,304,0.0,0.0,84,0.00,,---,0.00,VWS V14.01,2013-03-31 08:10:00,
2013-03-31 01:15:00,35.4,31.1,30.01,NW,304,0.0,0.0,84,0.00,,---,0.00,VWS V14.01,2013-03-31 08:15:00,
2013-03-31 01:20:00,35.4,31.1,30.01,NW,304,0.0,0.0,84,0.00,,---,0.00,VWS V14.01,2013-03-31 08:20:00,
2013-03-31 01:25:00,35.2,30.9,30.01,NW,304,0.0,0.0,84,0.00,,---,0.00,VWS V14.01,2013-03-31 08:25:00,
2013-03-31 01:30:00,35.2,30.9,30.01,NW,304,0.0,0.0,84,0.00,,---,0.00,VWS V14.01,2013-03-31 08:30:00,
2013-03-31 01:35:00,34.9,30.5,30.01,NW,304,0.0,0.0,84,0.00,,---,0.00,VWS V14.01,2013-03-31 08:35:00,
2013-03-31 01:40:00,34.9,30.5,30.01,NW,304,0.0,0.0,84,0.00,,---,0.00,VWS V14.01,2013-03-31 08:40:00,
2013-03-31 01:46:00,34.7,30.4,30.01,NW,304,0.0,0.0,84,0.00,,---,0.00,VWS V14.01,2013-03-31 08:46:00,
2013-03-31 01:51:00,34.7,30.4,30.01,NW,304,0.0,0.0,84,0.00,,---,0.00,VWS V14.01,2013-03-31 08:51:00,
2013-03-31 01:56:00,34.5,30.5,30.01,NW,304,0.0,0.0,85,0.00,,---,0.00,VWS V14.01,2013-03-31 08:56:00,
2013-03-31 02:01:00,34.5,30.5,30.01,NW,304,0.0,0.0,85,0.00,,---,0.00,VWS V14.01,2013-03-31 09:01:00,
2013-03-31 02:06:00,34.5,30.5,30.01,NW,304,0.0,0.0,85,0.00,,---,0.00,VWS V14.01,2013-03-31 09:06:00,
2013-03-31 02:12:00,34.5,30.5,30.01,NW,304,0.0,0.0,85,0.00,,---,0.00,VWS V14.01,2013-03-31 09:12:00,
2013-03-31 02:17:00,34.3,30.3,30.01,NW,304,0.0,0.0,85,0.00,,---,0.00,VWS V14.01,2013-03-31 09:17:00,
2013-03-31 02:22:00,34.2,30.1,29.98,NW,304,0.0,0.0,85,0.00,,---,0.00,VWS V14.01,2013-03-31 09:22:00,
2013-03-31 02:27:00,34.2,30.1,29.98,NW,304,0.0,0.0,85,0.00,,---,0.00,VWS V14.01,2013-03-31 09:27:00,
2013-03-31 02:32:00,34.2,30.4,29.98,NW,304,0.0,0.0,86,0.00,,---,0.00,VWS V14.01,2013-03-31 09:32:00,
2013-03-31 02:37:00,34.2,30.4,29.98,NW,304,0.0,0.0,86,0.00,,---,0.00,VWS V14.01,2013-03-31 09:37:00,
2013-03-31 02:42:00,34.2,30.4,29.98,NW,304,0.0,0.0,86,0.00,,---,0.00,VWS V14.01,2013-03-31 09:42:00,
2013-03-31 02:48:00,34.0,30.2,29.98,NW,304,0.0,0.0,86,0.00,,---,0.00,VWS V14.01,2013-03-31 09:48:00,
2013-03-31 02:53:00,34.0,30.2,29.98,NW,304,0.0,0.0,86,0.00,,---,0.00,VWS V14.01,2013-03-31 09:53:00,
2013-03-31 02:58:00,33.8,30.1,29.98,NW,304,0.0,0.0,86,0.00,,---,0.00,VWS V14.01,2013-03-31 09:58:00,
2013-03-31 03:03:00,33.8,30.1,29.98,NW,304,0.0,0.0,86,0.00,,---,0.00,VWS V14.01,2013-03-31 10:03:00,
2013-03-31 03:08:00,33.8,30.4,29.98,NW,304,0.0,0.0,87,0.00,,---,0.00,VWS V14.01,2013-03-31 10:08:00,
2013-03-31 03:13:00,33.6,30.2,29.98,NW,304,0.0,0.0,87,0.00,,---,0.00,VWS V14.01,2013-03-31 10:13:00,
2013-03-31 03:18:00,33.4,30.0,29.98,NW,304,0.0,0.0,87,0.00,,---,0.00,VWS V14.01,2013-03-31 10:18:00,
2013-03-31 03:23:00,33.4,30.0,29.98,NW,304,0.0,0.0,87,0.00,,---,0.00,VWS V14.01,2013-03-31 10:23:00,
2013-03-31 03:28:00,33.4,30.0,29.98,NW,304,0.0,0.0,87,0.00,,---,0.00,VWS V14.01,2013-03-31 10:28:00,
2013-03-31 03:33:00,33.3,29.8,29.98,NW,304,0.0,0.0,87,0.00,,---,0.00,VWS V14.01,2013-03-31 10:33:00,
2013-03-31 03:38:00,33.3,29.8,29.98,NW,304,0.0,0.0,87,0.00,,---,0.00,VWS V14.01,2013-03-31 10:38:00,
2013-03-31 03:43:00,33.3,29.8,29.98,NW,304,0.0,0.0,87,0.00,,---,0.00,VWS V14.01,2013-03-31 10:43:00,
2013-03-31 03:48:00,33.3,30.1,29.98,NW,304,0.0,0.0,88,0.00,,---,0.00,VWS V14.01,2013-03-31 10:48:00,
2013-03-31 03:54:00,33.3,30.1,29.98,NW,304,0.0,0.0,88,0.00,,---,0.00,VWS V14.01,2013-03-31 10:54:00,
2013-03-31 03:59:00,33.1,29.9,29.98,NW,304,0.0,0.0,88,0.00,,---,0.00,VWS V14.01,2013-03-31 10:59:00,
2013-03-31 04:04:00,33.1,29.9,29.98,NW,304,0.0,0.0,88,0.00,,---,0.00,VWS V14.01,2013-03-31 11:04:00,
2013-03-31 04:09:00,33.1,29.9,29.98,NW,304,0.0,0.0,88,0.00,,---,0.00,VWS V14.01,2013-03-31 11:09:00,
2013-03-31 04:14:00,32.9,29.7,29.98,NW,304,0.0,0.0,88,0.00,,---,0.00,VWS V14.01,2013-03-31 11:14:00,
2013-03-31 04:19:00,32.9,29.7,29.98,NW,304,0.0,0.0,88,0.00,,---,0.00,VWS V14.01,2013-03-31 11:19:00,
2013-03-31 04:25:00,32.7,29.6,29.98,NW,304,0.0,0.0,88,0.00,,---,0.00,VWS V14.01,2013-03-31 11:25:00,
2013-03-31 04:30:00,32.7,29.6,29.98,NW,304,0.0,0.0,88,0.00,,---,0.00,VWS V14.01,2013-03-31 11:30:00,
2013-03-31 04:36:00,32.7,29.6,29.98,NW,304,0.0,0.0,88,0.00,,---,0.00,VWS V14.01,2013-03-31 11:36:00,
2013-03-31 04:41:00,32.7,29.6,29.98,NW,304,0.0,0.0,88,0.00,,---,0.00,VWS V14.01,2013-03-31 11:41:00,
2013-03-31 04:46:00,32.5,29.4,29.98,NW,304,0.0,0.0,88,0.00,,---,0.00,VWS V14.01,2013-03-31 11:46:00,
2013-03-31 04:51:00,32.5,29.4,29.98,NW,304,0.0,0.0,88,0.00,,---,0.00,VWS V14.01,2013-03-31 11:51:00,
2013-03-31 04:56:00,32.5,29.7,29.98,NW,304,0.0,0.0,89,0.00,,---,0.00,VWS V14.01,2013-03-31 11:56:00,
2013-03-31 05:02:00,32.5,29.7,29.98,NW,304,0.0,0.0,89,0.00,,---,0.00,VWS V14.01,2013-03-31 12:02:00,
2013-03-31 05:07:00,32.5,29.7,29.98,NW,304,0.0,0.0,89,0.00,,---,0.00,VWS V14.01,2013-03-31 12:07:00,
2013-03-31 05:12:00,32.4,29.5,29.98,NW,304,0.0,0.0,89,0.00,,---,0.00,VWS V14.01,2013-03-31 12:12:00,
2013-03-31 05:17:00,32.4,29.5,29.98,NW,304,0.0,0.0,89,0.00,,---,0.00,VWS V14.01,2013-03-31 12:17:00,
2013-03-31 05:22:00,32.4,29.5,29.98,NW,304,0.0,0.0,89,0.00,,---,0.00,VWS V14.01,2013-03-31 12:22:00,
2013-03-31 05:27:00,32.4,29.5,29.98,NW,304,0.0,0.0,89,0.00,,---,0.00,VWS V14.01,2013-03-31 12:27:00,
2013-03-31 05:32:00,32.4,29.5,29.98,NW,304,0.0,0.0,89,0.00,,---,0.00,VWS V14.01,2013-03-31 12:32:00,
2013-03-31 05:37:00,32.2,29.3,29.98,NW,304,0.0,0.0,89,0.00,,---,0.00,VWS V14.01,2013-03-31 12:37:00,
2013-03-31 05:43:00,32.2,29.3,29.98,NW,304,0.0,0.0,89,0.00,,---,0.00,VWS V14.01,2013-03-31 12:43:00,
2013-03-31 05:48:00,32.0,29.1,29.98,NW,304,0.0,0.0,89,0.00,,---,0.00,VWS V14.01,2013-03-31 12:48:00,
2013-03-31 05:53:00,32.0,29.1,29.98,NW,304,0.0,0.0,89,0.00,,---,0.00,VWS V14.01,2013-03-31 12:53:00,
2013-03-31 05:58:00,32.0,29.1,29.98,NW,304,0.0,0.0,89,0.00,,---,0.00,VWS V14.01,2013-03-31 12:58:00,
2013-03-31 06:03:00,32.0,29.1,29.98,NW,304,0.0,0.0,89,0.00,,---,0.00,VWS V14.01,2013-03-31 13:03:00,
2013-03-31 06:08:00,31.8,29.0,29.98,NW,304,0.0,0.0,89,0.00,,---,0.00,VWS V14.01,2013-03-31 13:08:00,
2013-03-31 06:13:00,31.8,29.0,29.98,NW,304,0.0,0.0,89,0.00,,---,0.00,VWS V14.01,2013-03-31 13:13:00,
2013-03-31 06:19:00,31.8,29.0,29.98,NW,304,0.0,0.0,89,0.00,,---,0.00,VWS V14.01,2013-03-31 13:19:00,
2013-03-31 06:24:00,31.8,29.0,29.98,NW,304,0.0,0.0,89,0.00,,---,0.00,VWS V14.01,2013-03-31 13:24:00,
2013-03-31 06:29:00,31.8,29.0,29.98,NW,304,0.0,0.0,89,0.00,,---,0.00,VWS V14.01,2013-03-31 13:29:00,
2013-03-31 06:34:00,31.8,29.0,29.98,NW,304,0.0,0.0,89,0.00,,---,0.00,VWS V14.01,2013-03-31 13:34:00,
2013-03-31 06:39:00,31.8,29.2,29.98,NW,304,0.0,0.0,90,0.00,,---,0.00,VWS V14.01,2013-03-31 13:39:00,
2013-03-31 06:44:00,31.8,29.2,29.98,NW,304,0.0,0.0,90,0.00,,---,0.00,VWS V14.01,2013-03-31 13:44:00,
2013-03-31 06:49:00,31.6,29.0,29.98,NW,304,0.0,0.0,90,0.00,,---,0.00,VWS V14.01,2013-03-31 13:49:00,
2013-03-31 06:54:00,31.6,29.0,29.98,NW,304,0.0,0.0,90,0.00,,---,0.00,VWS V14.01,2013-03-31 13:54:00,
2013-03-31 06:59:00,31.6,29.0,29.98,NW,304,0.0,0.0,90,0.00,,---,0.00,VWS V14.01,2013-03-31 13:59:00,
2013-03-31 07:04:00,31.6,29.0,29.98,NW,304,0.0,0.0,90,0.00,,---,0.00,VWS V14.01,2013-03-31 14:04:00,
2013-03-31 07:09:00,31.6,29.0,29.98,NW,304,0.0,0.0,90,0.00,,---,0.00,VWS V14.01,2013-03-31 14:09:00,
2013-03-31 07:14:00,31.6,29.0,29.98,NW,304,0.0,0.0,90,0.00,,---,0.00,VWS V14.01,2013-03-31 14:14:00,
2013-03-31 07:20:00,31.6,29.0,29.98,NW,304,0.0,0.0,90,0.00,,---,0.00,VWS V14.01,2013-03-31 14:20:00,
2013-03-31 07:25:00,31.8,29.2,29.98,NW,304,0.0,0.0,90,0.00,,---,0.00,VWS V14.01,2013-03-31 14:25:00,
2013-03-31 07:30:00,31.8,29.2,29.98,NW,304,0.0,0.0,90,0.00,,---,0.00,VWS V14.01,2013-03-31 14:30:00,
2013-03-31 07:35:00,31.8,29.2,29.98,NW,304,0.0,0.0,90,0.00,,---,0.00,VWS V14.01,2013-03-31 14:35:00,
2013-03-31 07:40:00,32.0,29.4,29.98,NW,304,0.0,0.0,90,0.00,,---,0.00,VWS V14.01,2013-03-31 14:40:00,
2013-03-31 07:45:00,32.0,29.4,29.98,NW,304,0.0,0.0,90,0.00,,---,0.00,VWS V14.01,2013-03-31 14:45:00,
2013-03-31 07:50:00,32.0,29.4,29.98,NW,304,0.0,0.0,90,0.00,,---,0.00,VWS V14.01,2013-03-31 14:50:00,
2013-03-31 07:55:00,32.2,29.6,29.98,NW,304,0.0,0.0,90,0.00,,---,0.00,VWS V14.01,2013-03-31 14:55:00,
2013-03-31 08:00:00,32.2,29.6,29.98,NW,304,0.0,0.0,90,0.00,,---,0.00,VWS V14.01,2013-03-31 15:00:00,
2013-03-31 08:05:00,32.2,29.6,29.98,NW,304,0.0,0.0,90,0.00,,---,0.00,VWS V14.01,2013-03-31 15:05:00,
2013-03-31 08:10:00,32.2,29.6,29.98,NW,304,0.0,0.0,90,0.00,,---,0.00,VWS V14.01,2013-03-31 15:10:00,
2013-03-31 08:15:00,32.2,29.6,29.98,NW,304,0.0,0.0,90,0.00,,---,0.00,VWS V14.01,2013-03-31 15:15:00,
2013-03-31 08:20:00,32.4,29.8,29.98,NW,304,0.0,0.0,90,0.00,,---,0.00,VWS V14.01,2013-03-31 15:20:00,
2013-03-31 08:25:00,32.5,29.9,29.98,NW,304,0.0,0.0,90,0.00,,---,0.00,VWS V14.01,2013-03-31 15:25:00,
2013-03-31 08:30:00,32.5,30.2,29.98,NW,304,0.0,0.0,91,0.00,,---,0.00,VWS V14.01,2013-03-31 15:30:00,
2013-03-31 08:36:00,32.7,30.4,29.98,NW,304,0.0,0.0,91,0.00,,---,0.00,VWS V14.01,2013-03-31 15:36:00,
2013-03-31 08:41:00,32.9,30.6,29.98,NW,304,0.0,0.0,91,0.00,,---,0.00,VWS V14.01,2013-03-31 15:41:00,
2013-03-31 08:46:00,33.1,30.7,29.98,NW,304,0.0,0.0,91,0.00,,---,0.00,VWS V14.01,2013-03-31 15:46:00,
2013-03-31 08:51:00,33.4,31.1,29.98,NW,304,0.0,0.0,91,0.00,,---,0.00,VWS V14.01,2013-03-31 15:51:00,
2013-03-31 08:57:00,34.0,31.6,29.98,NW,304,0.0,0.0,91,0.00,,---,0.00,VWS V14.01,2013-03-31 15:57:00,
2013-03-31 09:02:00,34.3,32.0,29.98,NW,304,0.0,0.0,91,0.00,,---,0.00,VWS V14.01,2013-03-31 16:02:00,
2013-03-31 09:07:00,34.7,32.3,29.98,NW,304,0.0,0.0,91,0.00,,---,0.00,VWS V14.01,2013-03-31 16:07:00,
2013-03-31 09:12:00,35.1,32.7,29.98,NW,304,0.0,0.0,91,0.00,,---,0.00,VWS V14.01,2013-03-31 16:12:00,
2013-03-31 09:17:00,35.4,33.1,29.98,NW,304,0.0,0.0,91,0.00,,---,0.00,VWS V14.01,2013-03-31 16:17:00,
2013-03-31 09:22:00,35.8,33.4,29.95,NW,304,0.0,0.0,91,0.00,,---,0.00,VWS V14.01,2013-03-31 16:22:00,
2013-03-31 09:27:00,36.1,33.8,29.95,NW,304,0.0,0.0,91,0.00,,---,0.00,VWS V14.01,2013-03-31 16:27:00,
2013-03-31 09:32:00,36.5,34.1,29.95,NW,304,0.0,0.0,91,0.00,,---,0.00,VWS V14.01,2013-03-31 16:32:00,
2013-03-31 09:37:00,36.9,34.5,29.95,NW,304,0.0,0.0,91,0.00,,---,0.00,VWS V14.01,2013-03-31 16:37:00,
2013-03-31 09:42:00,37.6,34.9,29.95,NW,304,0.0,0.0,90,0.00,,---,0.00,VWS V14.01,2013-03-31 16:42:00,
2013-03-31 09:47:00,37.9,35.3,29.95,NW,304,0.0,0.0,90,0.00,,---,0.00,VWS V14.01,2013-03-31 16:47:00,
2013-03-31 09:53:00,38.5,35.8,29.95,NW,304,0.0,0.0,90,0.00,,---,0.00,VWS V14.01,2013-03-31 16:53:00,
2013-03-31 09:58:00,39.0,36.3,29.95,NW,304,0.0,0.0,90,0.00,,---,0.00,VWS V14.01,2013-03-31 16:58:00,
2013-03-31 10:03:00,39.6,36.9,29.95,NW,304,0.0,0.0,90,0.00,,---,0.00,VWS V14.01,2013-03-31 17:03:00,
2013-03-31 10:08:00,39.9,37.2,29.95,NW,304,0.0,0.0,90,0.00,,---,0.00,VWS V14.01,2013-03-31 17:08:00,
2013-03-31 10:13:00,40.6,37.9,29.95,NW,304,0.0,0.0,90,0.00,,---,0.00,VWS V14.01,2013-03-31 17:13:00,
2013-03-31 10:19:00,41.2,38.5,29.95,NW,304,0.0,0.0,90,0.00,,---,0.00,VWS V14.01,2013-03-31 17:19:00,
2013-03-31 10:24:00,41.9,39.2,29.95,NW,304,0.0,0.0,90,0.00,,---,0.00,VWS V14.01,2013-03-31 17:24:00,
2013-03-31 10:29:00,42.6,39.9,29.95,NW,304,0.0,0.0,90,0.00,,---,0.00,VWS V14.01,2013-03-31 17:29:00,
2013-03-31 10:34:00,43.3,40.3,29.95,NW,304,0.0,0.0,89,0.00,,---,0.00,VWS V14.01,2013-03-31 17:34:00,
2013-03-31 10:39:00,43.9,40.6,29.95,NW,304,0.0,0.0,88,0.00,,---,0.00,VWS V14.01,2013-03-31 17:39:00,
2013-03-31 10:44:00,44.4,41.1,29.95,NW,304,0.0,0.0,88,0.00,,---,0.00,VWS V14.01,2013-03-31 17:44:00,
2013-03-31 10:49:00,45.3,41.7,29.95,NW,304,0.0,0.0,87,0.00,,---,0.00,VWS V14.01,2013-03-31 17:49:00,
2013-03-31 10:54:00,46.0,42.4,29.95,NW,304,0.0,0.0,87,0.00,,---,0.00,VWS V14.01,2013-03-31 17:54:00,
2013-03-31 10:59:00,46.6,42.3,29.95,WSW,240,0.0,0.0,85,0.00,,---,0.00,VWS V14.01,2013-03-31 17:59:00,
2013-03-31 11:04:00,47.3,42.7,29.95,SW,235,0.0,0.0,84,0.00,,---,0.00,VWS V14.01,2013-03-31 18:04:00,
2013-03-31 11:09:00,48.0,43.1,29.95,WSW,237,0.0,0.0,83,0.00,,---,0.00,VWS V14.01,2013-03-31 18:09:00,
2013-03-31 11:15:00,48.7,43.5,29.95,SW,236,0.0,0.0,82,0.00,,---,0.00,VWS V14.01,2013-03-31 18:15:00,
2013-03-31 11:20:00,49.3,43.7,29.95,SW,235,0.0,0.0,81,0.00,,---,0.00,VWS V14.01,2013-03-31 18:20:00,
2013-03-31 11:25:00,50.5,44.3,29.95,SW,236,0.0,0.0,79,0.00,,---,0.00,VWS V14.01,2013-03-31 18:25:00,
2013-03-31 11:30:00,51.4,44.5,29.95,SW,235,0.0,0.0,77,0.00,,---,0.00,VWS V14.01,2013-03-31 18:30:00,
2013-03-31 11:35:00,52.3,44.7,29.95,SW,228,0.0,0.0,75,0.00,,---,0.00,VWS V14.01,2013-03-31 18:35:00,
2013-03-31 11:40:00,53.1,44.7,29.95,SW,232,0.0,0.0,73,0.00,,---,0.00,VWS V14.01,2013-03-31 18:40:00,
2013-03-31 11:46:00,54.0,45.2,29.95,SW,215,0.0,0.0,72,0.00,,---,0.00,VWS V14.01,2013-03-31 18:46:00,
2013-03-31 11:51:00,55.0,45.1,29.95,SW,233,0.0,0.0,69,0.00,,---,0.00,VWS V14.01,2013-03-31 18:51:00,
2013-03-31 11:56:00,55.9,44.8,29.95,SW,225,0.0,2.2,66,0.00,,---,0.00,VWS V14.01,2013-03-31 18:56:00,
2013-03-31 12:01:00,56.7,44.2,29.95,SW,218,0.0,0.0,63,0.00,,---,0.00,VWS V14.01,2013-03-31 19:01:00,
2013-03-31 12:06:00,57.2,43.0,29.95,SW,224,0.0,2.2,59,0.00,,---,0.00,VWS V14.01,2013-03-31 19:06:00,
2013-03-31 12:11:00,58.1,43.0,29.95,SW,226,0.0,0.0,57,0.00,,---,0.00,VWS V14.01,2013-03-31 19:11:00,
2013-03-31 12:17:00,58.8,41.2,29.95,SSW,211,0.0,3.6,52,0.00,,---,0.00,VWS V14.01,2013-03-31 19:17:00,
2013-03-31 12:22:00,59.4,40.7,29.95,WSW,255,0.0,0.0,50,0.00,,---,0.00,VWS V14.01,2013-03-31 19:22:00,
2013-03-31 12:27:00,59.9,40.2,29.95,West,263,0.0,0.0,48,0.00,,---,0.00,VWS V14.01,2013-03-31 19:27:00,
2013-03-31 12:32:00,60.3,40.0,29.95,West,271,2.2,2.2,47,0.00,,---,0.00,VWS V14.01,2013-03-31 19:32:00,
2013-03-31 12:38:00,61.0,39.5,29.92,West,266,0.0,2.2,45,0.00,,---,0.00,VWS V14.01,2013-03-31 19:38:00,
2013-03-31 12:43:00,61.7,39.6,29.92,West,278,0.0,0.0,44,0.00,,---,0.00,VWS V14.01,2013-03-31 19:43:00,
2013-03-31 12:48:00,62.2,38.9,29.92,SW,216,0.0,2.2,42,0.00,,---,0.00,VWS V14.01,2013-03-31 19:48:00,
2013-03-31 12:53:00,62.6,38.6,29.92,WNW,284,0.0,0.0,41,0.00,,---,0.00,VWS V14.01,2013-03-31 19:53:00,
2013-03-31 12:58:00,63.0,38.3,29.92,West,267,0.0,2.2,40,0.00,,---,0.00,VWS V14.01,2013-03-31 19:58:00,
2013-03-31 13:04:00,63.7,38.9,29.92,WNW,295,0.0,0.0,40,0.00,,---,0.00,VWS V14.01,2013-03-31 20:04:00,
2013-03-31 13:09:00,64.2,38.8,29.92,SW,228,0.0,5.4,39,0.00,,---,0.00,VWS V14.01,2013-03-31 20:09:00,
2013-03-31 13:14:00,64.8,38.6,29.92,SSW,213,0.0,2.2,38,0.00,,---,0.00,VWS V14.01,2013-03-31 20:14:00,
2013-03-31 13:19:00,65.1,38.2,29.92,SW,231,0.0,2.2,37,0.00,,---,0.00,VWS V14.01,2013-03-31 20:19:00,
2013-03-31 13:24:00,65.5,39.2,29.92,WSW,241,0.0,0.0,38,0.00,,---,0.00,VWS V14.01,2013-03-31 20:24:00,
2013-03-31 13:29:00,65.8,38.2,29.92,SW,227,0.0,4.0,36,0.00,,---,0.00,VWS V14.01,2013-03-31 20:29:00,
2013-03-31 13:34:00,65.8,38.9,29.92,SSW,211,0.0,0.0,37,0.00,,---,0.00,VWS V14.01,2013-03-31 20:34:00,
2013-03-31 13:39:00,66.0,38.3,29.92,West,264,0.0,3.1,36,0.00,,---,0.00,VWS V14.01,2013-03-31 20:39:00,
2013-03-31 13:44:00,66.0,38.3,29.92,SW,218,0.0,2.2,36,0.00,,---,0.00,VWS V14.01,2013-03-31 20:44:00,
2013-03-31 13:49:00,66.2,37.8,29.89,SW,217,0.0,2.2,35,0.00,,---,0.00,VWS V14.01,2013-03-31 20:49:00,
2013-03-31 13:54:00,66.2,38.5,29.89,SSW,201,0.0,0.0,36,0.00,,---,0.00,VWS V14.01,2013-03-31 20:54:00,
2013-03-31 13:59:00,66.4,37.9,29.89,SW,219,0.0,6.3,35,0.00,,---,0.00,VWS V14.01,2013-03-31 20:59:00,
2013-03-31 14:04:00,66.4,37.9,29.89,SW,220,4.0,5.4,35,0.00,,---,0.00,VWS V14.01,2013-03-31 21:04:00,
2013-03-31 14:09:00,66.0,37.6,29.89,SSW,211,4.5,5.4,35,0.00,,---,0.00,VWS V14.01,2013-03-31 21:09:00,
2013-03-31 14:14:00,65.8,37.5,29.89,SSW,213,0.0,0.0,35,0.00,,---,0.00,VWS V14.01,2013-03-31 21:14:00,
2013-03-31 14:19:00,65.7,37.3,29.89,WSW,256,3.1,3.1,35,0.00,,---,0.00,VWS V14.01,2013-03-31 21:19:00,
2013-03-31 14:24:00,65.7,37.3,29.89,SSW,207,0.0,3.6,35,0.00,,---,0.00,VWS V14.01,2013-03-31 21:24:00,
2013-03-31 14:29:00,65.7,37.3,29.89,WSW,241,0.0,4.0,35,0.00,,---,0.00,VWS V14.01,2013-03-31 21:29:00,
2013-03-31 14:35:00,65.7,37.3,29.89,SSW,211,0.0,0.0,35,0.00,,---,0.00,VWS V14.01,2013-03-31 21:35:00,
2013-03-31 14:40:00,65.7,37.3,29.89,WSW,257,0.0,2.2,35,0.00,,---,0.00,VWS V14.01,2013-03-31 21:40:00,
2013-03-31 14:45:00,65.7,37.3,29.89,SW,232,0.0,2.2,35,0.00,,---,0.00,VWS V14.01,2013-03-31 21:45:00,
2013-03-31 14:50:00,65.7,37.3,29.89,WSW,245,0.0,0.0,35,0.00,,---,0.00,VWS V14.01,2013-03-31 21:50:00,
2013-03-31 14:55:00,65.8,36.7,29.89,SW,229,0.0,0.0,34,0.00,,---,0.00,VWS V14.01,2013-03-31 21:55:00,
2013-03-31 15:00:00,66.2,37.0,29.89,WSW,244,0.0,0.0,34,0.00,,---,0.00,VWS V14.01,2013-03-31 22:00:00,
2013-03-31 15:05:00,66.2,37.0,29.89,WSW,253,0.0,2.7,34,0.00,,---,0.00,VWS V14.01,2013-03-31 22:05:00,
2013-03-31 15:10:00,66.4,36.4,29.89,SW,215,0.0,2.2,33,0.00,,---,0.00,VWS V14.01,2013-03-31 22:10:00,
2013-03-31 15:15:00,66.4,36.4,29.89,WSW,252,0.0,2.2,33,0.00,,---,0.00,VWS V14.01,2013-03-31 22:15:00,
2013-03-31 15:20:00,66.4,37.2,29.86,South,189,0.0,3.6,34,0.00,,---,0.00,VWS V14.01,2013-03-31 22:20:00,
2013-03-31 15:25:00,66.6,37.3,29.86,WNW,289,0.0,3.6,34,0.00,,---,0.00,VWS V14.01,2013-03-31 22:25:00,
2013-03-31 15:30:00,66.7,36.8,29.86,SW,218,2.2,2.2,33,0.00,,---,0.00,VWS V14.01,2013-03-31 22:30:00,
2013-03-31 15:35:00,66.9,36.9,29.86,WSW,249,0.0,2.2,33,0.00,,---,0.00,VWS V14.01,2013-03-31 22:35:00,
2013-03-31 15:40:00,66.9,36.9,29.86,WSW,246,0.0,2.7,33,0.00,,---,0.00,VWS V14.01,2013-03-31 22:40:00,
2013-03-31 15:46:00,66.9,36.9,29.86,SW,224,0.0,2.7,33,0.00,,---,0.00,VWS V14.01,2013-03-31 22:46:00,
2013-03-31 15:51:00,66.9,36.9,29.86,WSW,254,2.7,2.7,33,0.00,,---,0.00,VWS V14.01,2013-03-31 22:51:00,
2013-03-31 15:56:00,66.9,36.9,29.86,SW,228,2.7,4.9,33,0.00,,---,0.00,VWS V14.01,2013-03-31 22:56:00,
2013-03-31 16:01:00,66.9,36.9,29.86,WSW,238,0.0,0.0,33,0.00,,---,0.00,VWS V14.01,2013-03-31 23:01:00,
2013-03-31 16:06:00,66.7,36.8,29.86,WSW,244,0.0,0.0,33,0.00,,---,0.00,VWS V14.01,2013-03-31 23:06:00,
2013-03-31 16:12:00,66.7,36.8,29.86,SW,222,0.0,0.0,33,0.00,,---,0.00,VWS V14.01,2013-03-31 23:12:00,
2013-03-31 16:17:00,66.7,36.8,29.86,SW,229,0.0,0.0,33,0.00,,---,0.00,VWS V14.01,2013-03-31 23:17:00,
2013-03-31 16:22:00,66.7,36.8,29.86,WSW,237,0.0,0.0,33,0.00,,---,0.00,VWS V14.01,2013-03-31 23:22:00,
2013-03-31 16:27:00,66.9,36.9,29.86,SW,232,0.0,2.2,33,0.00,,---,0.00,VWS V14.01,2013-03-31 23:27:00,
2013-03-31 16:33:00,66.9,36.9,29.86,SW,234,0.0,0.0,33,0.00,,---,0.00,VWS V14.01,2013-03-31 23:33:00,
2013-03-31 16:38:00,66.9,36.9,29.83,WSW,237,0.0,0.0,33,0.00,,---,0.00,VWS V14.01,2013-03-31 23:38:00,
2013-03-31 16:43:00,66.9,36.9,29.83,SW,230,0.0,0.0,33,0.00,,---,0.00,VWS V14.01,2013-03-31 23:43:00,
2013-03-31 16:48:00,66.9,36.9,29.83,WSW,239,0.0,0.0,33,0.00,,---,0.00,VWS V14.01,2013-03-31 23:48:00,
2013-03-31 16:53:00,66.7,36.8,29.83,SW,228,0.0,2.7,33,0.00,,---,0.00,VWS V14.01,2013-03-31 23:53:00,
2013-03-31 16:58:00,66.7,36.8,29.83,WSW,255,0.0,2.7,33,0.00,,---,0.00,VWS V14.01,2013-03-31 23:58:00,
2013-03-31 17:03:00,66.7,36.8,29.83,WSW,255,0.0,0.0,33,0.00,,---,0.00,VWS V14.01,2013-04-01 00:03:00,
2013-03-31 17:08:00,66.6,36.6,29.83,WSW,253,0.0,0.0,33,0.00,,---,0.00,VWS V14.01,2013-04-01 00:08:00,
2013-03-31 17:13:00,66.6,36.6,29.83,WSW,253,0.0,0.0,33,0.00,,---,0.00,VWS V14.01,2013-04-01 00:13:00,
2013-03-31 17:18:00,66.6,36.6,29.83,WSW,253,0.0,0.0,33,0.00,,---,0.00,VWS V14.01,2013-04-01 00:18:00,
2013-03-31 17:23:00,66.6,36.6,29.83,WSW,254,0.0,0.0,33,0.00,,---,0.00,VWS V14.01,2013-04-01 00:23:00,
2013-03-31 17:28:00,65.8,36.7,29.83,WSW,246,0.0,0.0,34,0.00,,---,0.00,VWS V14.01,2013-04-01 00:28:00,
2013-03-31 17:33:00,65.1,36.1,29.83,WSW,246,0.0,0.0,34,0.00,,---,0.00,VWS V14.01,2013-04-01 00:33:00,
2013-03-31 17:38:00,64.6,35.6,29.83,WSW,245,0.0,0.0,34,0.00,,---,0.00,VWS V14.01,2013-04-01 00:38:00,
2013-03-31 17:43:00,64.0,35.9,29.83,WSW,245,0.0,0.0,35,0.00,,---,0.00,VWS V14.01,2013-04-01 00:43:00,
2013-03-31 17:49:00,63.0,34.9,29.80,SSW,212,0.0,0.0,35,0.00,,---,0.00,VWS V14.01,2013-04-01 00:49:00,
2013-03-31 17:54:00,62.4,35.1,29.80,SSW,212,0.0,0.0,36,0.00,,---,0.00,VWS V14.01,2013-04-01 00:54:00,
2013-03-31 17:59:00,61.5,35.7,29.80,SSW,212,0.0,0.0,38,0.00,,---,0.00,VWS V14.01,2013-04-01 00:59:00,
2013-03-31 18:04:00,60.6,36.2,29.83,SSW,212,0.0,0.0,40,0.00,,---,0.00,VWS V14.01,2013-04-01 01:04:00,
2013-03-31 18:09:00,59.9,36.2,29.83,SSW,212,0.0,0.0,41,0.00,,---,0.00,VWS V14.01,2013-04-01 01:09:00,
2013-03-31 18:15:00,59.2,36.1,29.83,SSW,212,0.0,0.0,42,0.00,,---,0.00,VWS V14.01,2013-04-01 01:15:00,
2013-03-31 18:20:00,58.6,36.8,29.83,SSW,212,0.0,0.0,44,0.00,,---,0.00,VWS V14.01,2013-04-01 01:20:00,
2013-03-31 18:25:00,58.3,37.0,29.83,SSW,212,0.0,0.0,45,0.00,,---,0.00,VWS V14.01,2013-04-01 01:25:00,
2013-03-31 18:30:00,57.9,37.3,29.83,SSW,212,0.0,0.0,46,0.00,,---,0.00,VWS V14.01,2013-04-01 01:30:00,
2013-03-31 18:36:00,57.6,37.5,29.83,SSW,212,0.0,0.0,47,0.00,,---,0.00,VWS V14.01,2013-04-01 01:36:00,
2013-03-31 18:41:00,57.2,37.7,29.83,SSW,212,0.0,0.0,48,0.00,,---,0.00,VWS V14.01,2013-04-01 01:41:00,
2013-03-31 18:47:00,56.7,37.7,29.83,SSW,212,0.0,0.0,49,0.00,,---,0.00,VWS V14.01,2013-04-01 01:47:00,
2013-03-31 18:52:00,56.3,37.9,29.83,SSW,212,0.0,0.0,50,0.00,,---,0.00,VWS V14.01,2013-04-01 01:52:00,
2013-03-31 18:57:00,55.8,37.4,29.83,SSW,212,0.0,0.0,50,0.00,,---,0.00,VWS V14.01,2013-04-01 01:57:00,
2013-03-31 19:02:00,55.2,37.4,29.83,SSW,212,0.0,0.0,51,0.00,,---,0.00,VWS V14.01,2013-04-01 02:02:00,
2013-03-31 19:07:00,54.7,36.9,29.83,SSW,212,0.0,0.0,51,0.00,,---,0.00,VWS V14.01,2013-04-01 02:07:00,
2013-03-31 19:13:00,54.0,36.8,29.83,SSW,212,0.0,0.0,52,0.00,,---,0.00,VWS V14.01,2013-04-01 02:13:00,
2013-03-31 19:18:00,53.4,36.7,29.83,SSW,212,0.0,0.0,53,0.00,,---,0.00,VWS V14.01,2013-04-01 02:18:00,
2013-03-31 19:23:00,53.1,36.4,29.83,SSW,212,0.0,0.0,53,0.00,,---,0.00,VWS V14.01,2013-04-01 02:23:00,
2013-03-31 19:28:00,52.5,36.4,29.83,SSW,212,0.0,0.0,54,0.00,,---,0.00,VWS V14.01,2013-04-01 02:28:00,
2013-03-31 19:33:00,52.0,36.3,29.83,SSW,212,0.0,0.0,55,0.00,,---,0.00,VWS V14.01,2013-04-01 02:33:00,
2013-03-31 19:38:00,51.6,36.9,29.83,SSW,212,0.0,0.0,57,0.00,,---,0.00,VWS V14.01,2013-04-01 02:38:00,
2013-03-31 19:43:00,51.3,36.6,29.83,SSW,212,0.0,0.0,57,0.00,,---,0.00,VWS V14.01,2013-04-01 02:43:00,
2013-03-31 19:48:00,50.7,36.5,29.83,SSW,212,0.0,0.0,58,0.00,,---,0.00,VWS V14.01,2013-04-01 02:48:00,
2013-03-31 19:53:00,50.2,36.0,29.83,SSW,212,0.0,0.0,58,0.00,,---,0.00,VWS V14.01,2013-04-01 02:53:00,
2013-03-31 19:58:00,49.8,36.1,29.83,SSW,212,0.0,0.0,59,0.00,,---,0.00,VWS V14.01,2013-04-01 02:58:00,
2013-03-31 20:03:00,49.5,36.6,29.83,SSW,212,0.0,0.0,61,0.00,,---,0.00,VWS V14.01,2013-04-01 03:03:00,
2013-03-31 20:08:00,49.1,36.2,29.83,SSW,212,0.0,0.0,61,0.00,,---,0.00,VWS V14.01,2013-04-01 03:08:00,
2013-03-31 20:14:00,48.7,36.3,29.83,SSW,212,0.0,0.0,62,0.00,,---,0.00,VWS V14.01,2013-04-01 03:14:00,
2013-03-31 20:19:00,48.4,36.0,29.83,SSW,212,0.0,0.0,62,0.00,,---,0.00,VWS V14.01,2013-04-01 03:19:00,
2013-03-31 20:24:00,48.0,36.0,29.83,SSW,212,0.0,0.0,63,0.00,,---,0.00,VWS V14.01,2013-04-01 03:24:00,
2013-03-31 20:29:00,47.7,36.1,29.83,SSW,212,0.0,0.0,64,0.00,,---,0.00,VWS V14.01,2013-04-01 03:29:00,
2013-03-31 20:34:00,47.3,35.8,29.83,SSW,212,0.0,0.0,64,0.00,,---,0.00,VWS V14.01,2013-04-01 03:34:00,
2013-03-31 20:39:00,46.9,35.8,29.83,SSW,212,0.0,0.0,65,0.00,,---,0.00,VWS V14.01,2013-04-01 03:39:00,
2013-03-31 20:44:00,46.6,35.8,29.83,SSW,212,0.0,0.0,66,0.00,,---,0.00,VWS V14.01,2013-04-01 03:44:00,
2013-03-31 20:50:00,46.2,35.9,29.83,SSW,212,0.0,0.0,67,0.00,,---,0.00,VWS V14.01,2013-04-01 03:50:00,
2013-03-31 20:55:00,46.0,36.5,29.83,SSW,212,0.0,0.0,69,0.00,,---,0.00,VWS V14.01,2013-04-01 03:55:00,
2013-03-31 21:00:00,46.0,36.5,29.83,SSW,212,0.0,0.0,69,0.00,,---,0.00,VWS V14.01,2013-04-01 04:00:00,
2013-03-31 21:02:00,45.9,36.3,29.83,SSW,212,0.0,0.0,69,0.00,,---,0.00,VWS V14.01,2013-04-01 04:02:00,
2013-03-31 21:03:00,45.9,36.3,29.86,SSW,212,0.0,0.0,69,0.00,,---,0.00,VWS V14.01,2013-04-01 04:03:00,
2013-03-31 21:08:00,45.9,36.6,29.86,SSW,212,0.0,0.0,70,0.00,,---,0.00,VWS V14.01,2013-04-01 04:08:00,
2013-03-31 21:12:00,45.3,36.1,29.86,SSW,212,0.0,0.0,70,0.00,,---,0.00,VWS V14.01,2013-04-01 04:12:00,
2013-03-31 21:17:00,45.0,35.8,29.86,SSW,212,0.0,0.0,70,0.00,,---,0.00,VWS V14.01,2013-04-01 04:17:00,
2013-03-31 21:22:00,44.6,35.4,29.86,SSW,212,0.0,0.0,70,0.00,,---,0.00,VWS V14.01,2013-04-01 04:22:00,
2013-03-31 21:27:00,44.6,36.2,29.86,SSW,212,0.0,0.0,72,0.00,,---,0.00,VWS V14.01,2013-04-01 04:27:00,
2013-03-31 21:32:00,44.4,36.0,29.86,SSW,212,0.0,0.0,72,0.00,,---,0.00,VWS V14.01,2013-04-01 04:32:00,
2013-03-31 21:37:00,44.1,35.6,29.86,SSW,212,0.0,0.0,72,0.00,,---,0.00,VWS V14.01,2013-04-01 04:37:00,
2013-03-31 21:42:00,43.9,35.5,29.86,SSW,212,0.0,0.0,72,0.00,,---,0.00,VWS V14.01,2013-04-01 04:42:00,
2013-03-31 21:47:00,43.7,35.3,29.86,SSW,212,0.0,0.0,72,0.00,,---,0.00,VWS V14.01,2013-04-01 04:47:00,
2013-03-31 21:52:00,43.5,35.5,29.86,SSW,212,0.0,0.0,73,0.00,,---,0.00,VWS V14.01,2013-04-01 04:52:00,
2013-03-31 21:59:00,43.3,35.3,29.86,SSW,212,0.0,0.0,73,0.00,,---,0.00,VWS V14.01,2013-04-01 04:59:00,
2013-03-31 22:04:00,43.0,34.9,29.86,SSW,212,0.0,0.0,73,0.00,,---,0.00,VWS V14.01,2013-04-01 05:04:00,
2013-03-31 22:09:00,42.8,35.1,29.86,SSW,212,0.0,0.0,74,0.00,,---,0.00,VWS V14.01,2013-04-01 05:09:00,
2013-03-31 22:14:00,42.4,34.8,29.86,SSW,212,0.0,0.0,74,0.00,,---,0.00,VWS V14.01,2013-04-01 05:14:00,
2013-03-31 22:19:00,42.3,34.9,29.86,SSW,212,0.0,0.0,75,0.00,,---,0.00,VWS V14.01,2013-04-01 05:19:00,
2013-03-31 22:25:00,42.1,34.7,29.86,SSW,212,0.0,0.0,75,0.00,,---,0.00,VWS V14.01,2013-04-01 05:25:00,
2013-03-31 22:30:00,41.7,34.4,29.86,SSW,212,0.0,0.0,75,0.00,,---,0.00,VWS V14.01,2013-04-01 05:30:00,
2013-03-31 22:35:00,41.5,34.2,29.86,SSW,212,0.0,0.0,75,0.00,,---,0.00,VWS V14.01,2013-04-01 05:35:00,
2013-03-31 22:40:00,41.5,34.2,29.86,SSW,212,0.0,0.0,75,0.00,,---,0.00,VWS V14.01,2013-04-01 05:40:00,
2013-03-31 22:46:00,41.5,34.5,29.86,SSW,212,0.0,0.0,76,0.00,,---,0.00,VWS V14.01,2013-04-01 05:46:00,
2013-03-31 22:51:00,41.5,34.5,29.86,SSW,212,0.0,0.0,76,0.00,,---,0.00,VWS V14.01,2013-04-01 05:51:00,
2013-03-31 22:57:00,41.4,34.4,29.86,SSW,212,0.0,0.0,76,0.00,,---,0.00,VWS V14.01,2013-04-01 05:57:00,
2013-03-31 23:02:00,41.2,34.2,29.86,SSW,212,0.0,0.0,76,0.00,,---,0.00,VWS V14.01,2013-04-01 06:02:00,
2013-03-31 23:07:00,41.0,34.0,29.86,SSW,212,0.0,0.0,76,0.00,,---,0.00,VWS V14.01,2013-04-01 06:07:00,
2013-03-31 23:12:00,40.8,34.2,29.86,SSW,212,0.0,0.0,77,0.00,,---,0.00,VWS V14.01,2013-04-01 06:12:00,
2013-03-31 23:17:00,40.6,33.7,29.86,SSW,212,0.0,0.0,76,0.00,,---,0.00,VWS V14.01,2013-04-01 06:17:00,
2013-03-31 23:22:00,40.5,33.5,29.86,SSW,212,0.0,0.0,76,0.00,,---,0.00,VWS V14.01,2013-04-01 06:22:00,
2013-03-31 23:27:00,40.3,33.7,29.86,SSW,212,0.0,0.0,77,0.00,,---,0.00,VWS V14.01,2013-04-01 06:27:00,
2013-03-31 23:32:00,40.3,33.7,29.86,SSW,212,0.0,0.0,77,0.00,,---,0.00,VWS V14.01,2013-04-01 06:32:00,
2013-03-31 23:37:00,39.9,33.3,29.86,SSW,212,0.0,0.0,77,0.00,,---,0.00,VWS V14.01,2013-04-01 06:37:00,
2013-03-31 23:42:00,39.9,33.3,29.86,SSW,212,0.0,0.0,77,0.00,,---,0.00,VWS V14.01,2013-04-01 06:42:00,
2013-03-31 23:47:00,39.9,33.6,29.86,SSW,212,0.0,0.0,78,0.00,,---,0.00,VWS V14.01,2013-04-01 06:47:00,
2013-03-31 23:52:00,39.7,33.5,29.86,SSW,212,0.0,0.0,78,0.00,,---,0.00,VWS V14.01,2013-04-01 06:52:00,
2013-03-31 23:57:00,39.6,33.3,29.86,SSW,212,0.0,0.0,78,0.00,,---,0.00,VWS V14.01,2013-04-01 06:57:00,